UUWW/VKO METAR and TAF weather

Enter ICAO airport designator
Station Type Date Time Source
UUWW METAR 2021/08/05 04:00 UTC NOAA

UUWW 050400Z VRB01MPS CAVOK 14/12 Q1018 R24/000070 NOSIG


Station Type Date Time Source
UUWW Decoded METAR 2021/08/05 04:00 UTC NOAA

Moscow / Vnukovo , Russia (UUWW) 55-39N 037-16E
Aug 05, 2021 - 12:00 AM EDT / 2021.08.05 0400 UTC
Wind: Variable at 2 MPH (2 KT):0
Visibility: greater than 7 mile(s):0
Temperature: 57 F (14 C)
Dew Point: 53 F (12 C)
Relative Humidity: 87%
Pressure (altimeter): 30.06 in. Hg (1018 hPa)
ob: UUWW 050400Z VRB01MPS CAVOK 14/12 Q1018 R24/000070 NOSIG
cycle: 4

Station Type Date Time Source
UUWW TAF 2021/08/05 03:21 UTC NOAA

TAF UUWW 050155Z 0503/0603 15003MPS 6000 BKN016 TX24/0512Z TN12/0503Z
TEMPO 0503/0504 0400 FG FEW002
TEMPO 0509/0521 -SHRA FEW005 BKN025CB PROB40
TEMPO 0509/0521 -TSRA BKN030CB
TEMPO 0521/0603 15008G13MPS -SHRA FEW004 SCT025CB

Example: see airport list